sensor_id;sensor_type;location;lat;lon;timestamp;P1;durP1;ratioP1;P2;durP2;ratioP2
70313;SDS011;71040;47.526;18.986;2023-08-06T00:03:01;7.53;;;4.80;;
70313;SDS011;71040;47.526;18.986;2023-08-06T00:08:02;6.65;;;5.13;;
70313;SDS011;71040;47.526;18.986;2023-08-06T00:13:05;6.07;;;5.00;;
70313;SDS011;71040;47.526;18.986;2023-08-06T00:18:05;5.40;;;4.50;;
70313;SDS011;71040;47.526;18.986;2023-08-06T00:23:10;8.13;;;6.15;;
70313;SDS011;71040;47.526;18.986;2023-08-06T00:28:11;6.22;;;4.57;;
70313;SDS011;71040;47.526;18.986;2023-08-06T00:33:11;6.73;;;5.80;;
70313;SDS011;71040;47.526;18.986;2023-08-06T00:38:14;6.23;;;4.87;;
70313;SDS011;71040;47.526;18.986;2023-08-06T00:43:15;5.22;;;4.18;;
70313;SDS011;71040;47.526;18.986;2023-08-06T00:48:17;6.93;;;5.75;;
70313;SDS011;71040;47.526;18.986;2023-08-06T00:53:21;6.32;;;4.97;;
70313;SDS011;71040;47.526;18.986;2023-08-06T00:58:21;5.35;;;4.05;;
70313;SDS011;71040;47.526;18.986;2023-08-06T01:03:22;6.50;;;4.80;;
70313;SDS011;71040;47.526;18.986;2023-08-06T01:18:49;5.65;;;4.43;;
70313;SDS011;71040;47.526;18.986;2023-08-06T01:23:52;3.95;;;3.50;;
70313;SDS011;71040;47.526;18.986;2023-08-06T01:34:21;3.85;;;3.28;;
70313;SDS011;71040;47.526;18.986;2023-08-06T01:44:25;4.88;;;3.35;;
70313;SDS011;71040;47.526;18.986;2023-08-06T01:49:25;3.28;;;2.80;;
70313;SDS011;71040;47.526;18.986;2023-08-06T01:54:26;5.07;;;3.00;;
70313;SDS011;71040;47.526;18.986;2023-08-06T01:59:29;3.65;;;2.72;;
70313;SDS011;71040;47.526;18.986;2023-08-06T02:04:29;4.20;;;3.10;;
70313;SDS011;71040;47.526;18.986;2023-08-06T02:09:32;3.67;;;2.97;;
70313;SDS011;71040;47.526;18.986;2023-08-06T02:14:35;5.00;;;3.83;;
70313;SDS011;71040;47.526;18.986;2023-08-06T02:19:35;4.22;;;3.83;;
70313;SDS011;71040;47.526;18.986;2023-08-06T02:24:35;4.33;;;3.77;;
70313;SDS011;71040;47.526;18.986;2023-08-06T02:29:36;5.50;;;4.13;;
70313;SDS011;71040;47.526;18.986;2023-08-06T02:34:36;4.47;;;4.07;;
70313;SDS011;71040;47.526;18.986;2023-08-06T02:39:39;5.47;;;4.53;;
70313;SDS011;71040;47.526;18.986;2023-08-06T02:44:40;4.03;;;3.63;;
70313;SDS011;71040;47.526;18.986;2023-08-06T02:49:40;3.63;;;3.00;;
70313;SDS011;71040;47.526;18.986;2023-08-06T02:54:48;4.75;;;4.15;;
70313;SDS011;71040;47.526;18.986;2023-08-06T02:59:51;3.83;;;3.40;;
70313;SDS011;71040;47.526;18.986;2023-08-06T03:04:54;4.38;;;3.70;;
70313;SDS011;71040;47.526;18.986;2023-08-06T03:09:57;4.20;;;3.65;;
70313;SDS011;71040;47.526;18.986;2023-08-06T03:15:01;3.60;;;2.97;;
70313;SDS011;71040;47.526;18.986;2023-08-06T03:20:06;3.47;;;3.15;;
70313;SDS011;71040;47.526;18.986;2023-08-06T03:25:07;4.47;;;3.40;;
70313;SDS011;71040;47.526;18.986;2023-08-06T03:30:08;4.55;;;2.88;;
70313;SDS011;71040;47.526;18.986;2023-08-06T03:35:09;4.07;;;2.88;;
70313;SDS011;71040;47.526;18.986;2023-08-06T03:40:09;2.77;;;2.37;;
70313;SDS011;71040;47.526;18.986;2023-08-06T03:45:10;2.53;;;2.30;;
70313;SDS011;71040;47.526;18.986;2023-08-06T03:50:10;6.03;;;2.60;;
70313;SDS011;71040;47.526;18.986;2023-08-06T03:55:20;3.40;;;2.93;;
70313;SDS011;71040;47.526;18.986;2023-08-06T04:00:21;3.38;;;2.45;;
70313;SDS011;71040;47.526;18.986;2023-08-06T04:05:21;3.30;;;2.07;;
70313;SDS011;71040;47.526;18.986;2023-08-06T04:10:21;3.10;;;2.20;;
70313;SDS011;71040;47.526;18.986;2023-08-06T04:15:22;2.53;;;2.20;;
70313;SDS011;71040;47.526;18.986;2023-08-06T04:20:24;2.90;;;2.20;;
70313;SDS011;71040;47.526;18.986;2023-08-06T04:25:27;3.30;;;2.72;;
70313;SDS011;71040;47.526;18.986;2023-08-06T04:30:28;4.00;;;2.80;;
70313;SDS011;71040;47.526;18.986;2023-08-06T04:35:28;2.10;;;1.87;;
70313;SDS011;71040;47.526;18.986;2023-08-06T04:40:28;2.83;;;2.33;;
70313;SDS011;71040;47.526;18.986;2023-08-06T04:45:31;2.70;;;2.00;;
70313;SDS011;71040;47.526;18.986;2023-08-06T04:50:38;2.63;;;2.27;;
70313;SDS011;71040;47.526;18.986;2023-08-06T04:55:45;2.10;;;1.67;;
70313;SDS011;71040;47.526;18.986;2023-08-06T05:00:56;1.65;;;1.52;;
70313;SDS011;71040;47.526;18.986;2023-08-06T05:05:56;2.33;;;1.73;;
70313;SDS011;71040;47.526;18.986;2023-08-06T05:10:56;2.70;;;1.73;;
70313;SDS011;71040;47.526;18.986;2023-08-06T05:16:02;1.85;;;1.23;;
70313;SDS011;71040;47.526;18.986;2023-08-06T05:21:03;1.30;;;0.90;;
70313;SDS011;71040;47.526;18.986;2023-08-06T05:26:03;1.30;;;0.93;;
70313;SDS011;71040;47.526;18.986;2023-08-06T05:31:04;1.38;;;1.05;;
70313;SDS011;71040;47.526;18.986;2023-08-06T05:36:05;0.95;;;0.68;;
70313;SDS011;71040;47.526;18.986;2023-08-06T05:41:08;0.82;;;0.60;;
70313;SDS011;71040;47.526;18.986;2023-08-06T05:46:08;0.80;;;0.40;;
70313;SDS011;71040;47.526;18.986;2023-08-06T05:51:08;1.00;;;0.50;;
70313;SDS011;71040;47.526;18.986;2023-08-06T05:56:09;1.30;;;0.70;;
70313;SDS011;71040;47.526;18.986;2023-08-06T06:01:12;0.98;;;0.40;;
70313;SDS011;71040;47.526;18.986;2023-08-06T06:06:12;0.50;;;0.30;;
70313;SDS011;71040;47.526;18.986;2023-08-06T06:11:12;0.93;;;0.40;;
70313;SDS011;71040;47.526;18.986;2023-08-06T06:16:13;0.40;;;0.20;;
70313;SDS011;71040;47.526;18.986;2023-08-06T06:21:16;0.40;;;0.20;;
70313;SDS011;71040;47.526;18.986;2023-08-06T06:26:16;0.80;;;0.30;;
70313;SDS011;71040;47.526;18.986;2023-08-06T06:31:20;0.68;;;0.50;;
70313;SDS011;71040;47.526;18.986;2023-08-06T06:36:29;0.80;;;0.50;;
70313;SDS011;71040;47.526;18.986;2023-08-06T06:41:32;0.40;;;0.20;;
70313;SDS011;71040;47.526;18.986;2023-08-06T06:46:35;1.00;;;0.75;;
70313;SDS011;71040;47.526;18.986;2023-08-06T06:51:36;0.60;;;0.30;;
70313;SDS011;71040;47.526;18.986;2023-08-06T06:56:38;0.70;;;0.30;;
70313;SDS011;71040;47.526;18.986;2023-08-06T07:01:41;0.55;;;0.17;;
70313;SDS011;71040;47.526;18.986;2023-08-06T07:06:42;0.97;;;0.40;;
70313;SDS011;71040;47.526;18.986;2023-08-06T07:11:47;0.22;;;0.10;;
70313;SDS011;71040;47.526;18.986;2023-08-06T07:16:47;0.57;;;0.30;;
70313;SDS011;71040;47.526;18.986;2023-08-06T07:21:50;0.40;;;0.20;;
70313;SDS011;71040;47.526;18.986;2023-08-06T07:26:50;0.50;;;0.20;;
70313;SDS011;71040;47.526;18.986;2023-08-06T07:31:52;0.47;;;0.20;;
70313;SDS011;71040;47.526;18.986;2023-08-06T07:36:53;0.20;;;0.10;;
70313;SDS011;71040;47.526;18.986;2023-08-06T07:41:53;0.20;;;0.10;;
70313;SDS011;71040;47.526;18.986;2023-08-06T07:46:53;0.47;;;0.27;;
70313;SDS011;71040;47.526;18.986;2023-08-06T07:51:54;0.37;;;0.20;;
70313;SDS011;71040;47.526;18.986;2023-08-06T07:56:54;1.13;;;0.10;;
70313;SDS011;71040;47.526;18.986;2023-08-06T08:01:55;0.20;;;0.10;;
70313;SDS011;71040;47.526;18.986;2023-08-06T08:06:55;0.10;;;0.10;;
70313;SDS011;71040;47.526;18.986;2023-08-06T08:11:58;0.52;;;0.10;;
70313;SDS011;71040;47.526;18.986;2023-08-06T08:17:01;0.30;;;0.20;;
70313;SDS011;71040;47.526;18.986;2023-08-06T08:22:05;0.40;;;0.10;;
70313;SDS011;71040;47.526;18.986;2023-08-06T08:27:07;1.27;;;0.20;;
70313;SDS011;71040;47.526;18.986;2023-08-06T08:32:08;0.17;;;0.10;;
70313;SDS011;71040;47.526;18.986;2023-08-06T08:37:09;0.35;;;0.10;;
70313;SDS011;71040;47.526;18.986;2023-08-06T08:42:09;0.27;;;0.10;;
70313;SDS011;71040;47.526;18.986;2023-08-06T08:47:10;0.47;;;0.10;;
70313;SDS011;71040;47.526;18.986;2023-08-06T08:52:11;0.30;;;0.10;;
70313;SDS011;71040;47.526;18.986;2023-08-06T08:57:17;0.60;;;0.10;;
70313;SDS011;71040;47.526;18.986;2023-08-06T09:02:17;0.15;;;0.10;;
70313;SDS011;71040;47.526;18.986;2023-08-06T09:07:24;0.40;;;0.10;;
70313;SDS011;71040;47.526;18.986;2023-08-06T09:12:26;0.40;;;0.10;;
70313;SDS011;71040;47.526;18.986;2023-08-06T09:17:27;1.35;;;0.28;;
70313;SDS011;71040;47.526;18.986;2023-08-06T09:22:33;1.02;;;0.20;;
70313;SDS011;71040;47.526;18.986;2023-08-06T09:27:38;0.40;;;0.10;;
70313;SDS011;71040;47.526;18.986;2023-08-06T09:32:46;0.20;;;0.10;;
70313;SDS011;71040;47.526;18.986;2023-08-06T09:37:51;4.13;;;0.25;;
70313;SDS011;71040;47.526;18.986;2023-08-06T09:42:51;2.23;;;0.10;;
70313;SDS011;71040;47.526;18.986;2023-08-06T09:47:55;0.75;;;0.10;;
70313;SDS011;71040;47.526;18.986;2023-08-06T09:52:56;0.30;;;0.10;;
70313;SDS011;71040;47.526;18.986;2023-08-06T09:57:57;0.20;;;0.08;;
70313;SDS011;71040;47.526;18.986;2023-08-06T10:03:01;1.30;;;0.10;;
70313;SDS011;71040;47.526;18.986;2023-08-06T10:08:07;0.52;;;0.10;;
70313;SDS011;71040;47.526;18.986;2023-08-06T10:13:09;0.20;;;0.00;;
70313;SDS011;71040;47.526;18.986;2023-08-06T10:18:10;0.10;;;0.00;;
70313;SDS011;71040;47.526;18.986;2023-08-06T10:23:18;0.25;;;0.10;;
70313;SDS011;71040;47.526;18.986;2023-08-06T10:28:20;0.20;;;0.10;;
70313;SDS011;71040;47.526;18.986;2023-08-06T10:33:21;0.10;;;0.08;;
70313;SDS011;71040;47.526;18.986;2023-08-06T10:38:25;0.20;;;0.10;;
70313;SDS011;71040;47.526;18.986;2023-08-06T10:48:34;0.20;;;0.10;;
70313;SDS011;71040;47.526;18.986;2023-08-06T10:53:42;0.00;;;0.00;;
70313;SDS011;71040;47.526;18.986;2023-08-06T10:58:44;0.10;;;0.00;;
70313;SDS011;71040;47.526;18.986;2023-08-06T11:03:49;1.13;;;0.10;;
70313;SDS011;71040;47.526;18.986;2023-08-06T11:08:53;0.10;;;0.00;;
70313;SDS011;71040;47.526;18.986;2023-08-06T11:13:54;1.15;;;0.20;;
70313;SDS011;71040;47.526;18.986;2023-08-06T11:18:57;0.10;;;0.10;;
70313;SDS011;71040;47.526;18.986;2023-08-06T11:23:59;0.08;;;0.00;;
70313;SDS011;71040;47.526;18.986;2023-08-06T11:29:05;0.20;;;0.10;;
70313;SDS011;71040;47.526;18.986;2023-08-06T11:34:07;0.20;;;0.10;;
70313;SDS011;71040;47.526;18.986;2023-08-06T11:39:11;0.30;;;0.00;;
70313;SDS011;71040;47.526;18.986;2023-08-06T11:44:12;0.30;;;0.10;;
70313;SDS011;71040;47.526;18.986;2023-08-06T11:49:16;0.10;;;0.10;;
70313;SDS011;71040;47.526;18.986;2023-08-06T11:54:31;0.20;;;0.10;;
70313;SDS011;71040;47.526;18.986;2023-08-06T11:59:37;0.13;;;0.10;;
70313;SDS011;71040;47.526;18.986;2023-08-06T12:10:01;0.20;;;0.10;;
70313;SDS011;71040;47.526;18.986;2023-08-06T12:15:04;0.82;;;0.10;;
70313;SDS011;71040;47.526;18.986;2023-08-06T12:20:08;0.22;;;0.10;;
70313;SDS011;71040;47.526;18.986;2023-08-06T12:25:12;0.10;;;0.10;;
70313;SDS011;71040;47.526;18.986;2023-08-06T12:30:13;0.17;;;0.10;;
70313;SDS011;71040;47.526;18.986;2023-08-06T12:35:13;0.20;;;0.10;;
70313;SDS011;71040;47.526;18.986;2023-08-06T12:40:14;0.17;;;0.10;;
70313;SDS011;71040;47.526;18.986;2023-08-06T12:45:17;0.43;;;0.10;;
70313;SDS011;71040;47.526;18.986;2023-08-06T12:50:22;0.32;;;0.10;;
70313;SDS011;71040;47.526;18.986;2023-08-06T12:55:22;0.80;;;0.10;;
70313;SDS011;71040;47.526;18.986;2023-08-06T13:00:23;0.20;;;0.10;;
70313;SDS011;71040;47.526;18.986;2023-08-06T13:05:26;0.35;;;0.10;;
70313;SDS011;71040;47.526;18.986;2023-08-06T13:10:26;0.40;;;0.10;;
70313;SDS011;71040;47.526;18.986;2023-08-06T13:15:28;0.22;;;0.10;;
70313;SDS011;71040;47.526;18.986;2023-08-06T13:20:31;0.45;;;0.10;;
70313;SDS011;71040;47.526;18.986;2023-08-06T13:25:34;0.38;;;0.20;;
70313;SDS011;71040;47.526;18.986;2023-08-06T13:30:41;0.35;;;0.13;;
70313;SDS011;71040;47.526;18.986;2023-08-06T13:35:42;0.30;;;0.20;;
70313;SDS011;71040;47.526;18.986;2023-08-06T13:40:47;0.47;;;0.20;;
70313;SDS011;71040;47.526;18.986;2023-08-06T13:45:48;0.30;;;0.20;;
70313;SDS011;71040;47.526;18.986;2023-08-06T13:50:48;0.30;;;0.20;;
70313;SDS011;71040;47.526;18.986;2023-08-06T13:55:51;0.60;;;0.35;;
70313;SDS011;71040;47.526;18.986;2023-08-06T14:00:56;0.65;;;0.17;;
70313;SDS011;71040;47.526;18.986;2023-08-06T14:05:57;1.40;;;0.20;;
70313;SDS011;71040;47.526;18.986;2023-08-06T14:10:58;1.47;;;0.27;;
70313;SDS011;71040;47.526;18.986;2023-08-06T14:15:58;3.30;;;0.40;;
70313;SDS011;71040;47.526;18.986;2023-08-06T14:20:59;0.80;;;0.30;;
70313;SDS011;71040;47.526;18.986;2023-08-06T14:26:05;1.55;;;0.40;;
70313;SDS011;71040;47.526;18.986;2023-08-06T14:31:05;0.65;;;0.20;;
70313;SDS011;71040;47.526;18.986;2023-08-06T14:36:06;0.40;;;0.32;;
70313;SDS011;71040;47.526;18.986;2023-08-06T14:41:07;1.33;;;0.40;;
70313;SDS011;71040;47.526;18.986;2023-08-06T14:46:09;0.30;;;0.20;;
70313;SDS011;71040;47.526;18.986;2023-08-06T14:51:10;0.43;;;0.30;;
70313;SDS011;71040;47.526;18.986;2023-08-06T14:56:22;0.40;;;0.20;;
70313;SDS011;71040;47.526;18.986;2023-08-06T15:01:25;0.30;;;0.22;;
70313;SDS011;71040;47.526;18.986;2023-08-06T15:06:25;0.50;;;0.20;;
70313;SDS011;71040;47.526;18.986;2023-08-06T15:11:28;0.45;;;0.30;;
70313;SDS011;71040;47.526;18.986;2023-08-06T15:16:31;0.60;;;0.20;;
70313;SDS011;71040;47.526;18.986;2023-08-06T15:21:34;0.50;;;0.30;;
70313;SDS011;71040;47.526;18.986;2023-08-06T15:26:34;0.60;;;0.37;;
70313;SDS011;71040;47.526;18.986;2023-08-06T15:31:37;0.50;;;0.30;;
70313;SDS011;71040;47.526;18.986;2023-08-06T15:36:39;0.68;;;0.40;;
70313;SDS011;71040;47.526;18.986;2023-08-06T15:41:39;0.80;;;0.37;;
70313;SDS011;71040;47.526;18.986;2023-08-06T15:46:42;0.60;;;0.57;;
70313;SDS011;71040;47.526;18.986;2023-08-06T15:51:46;0.40;;;0.30;;
70313;SDS011;71040;47.526;18.986;2023-08-06T15:56:55;0.60;;;0.40;;
70313;SDS011;71040;47.526;18.986;2023-08-06T16:01:58;0.80;;;0.30;;
70313;SDS011;71040;47.526;18.986;2023-08-06T16:07:02;0.47;;;0.30;;
70313;SDS011;71040;47.526;18.986;2023-08-06T16:12:03;0.70;;;0.47;;
70313;SDS011;71040;47.526;18.986;2023-08-06T16:17:10;0.98;;;0.40;;
70313;SDS011;71040;47.526;18.986;2023-08-06T16:22:13;0.75;;;0.45;;
70313;SDS011;71040;47.526;18.986;2023-08-06T16:27:16;0.50;;;0.40;;
70313;SDS011;71040;47.526;18.986;2023-08-06T16:32:17;0.90;;;0.60;;
70313;SDS011;71040;47.526;18.986;2023-08-06T16:37:17;0.70;;;0.60;;
70313;SDS011;71040;47.526;18.986;2023-08-06T16:42:17;2.57;;;0.70;;
70313;SDS011;71040;47.526;18.986;2023-08-06T16:47:18;0.50;;;0.40;;
70313;SDS011;71040;47.526;18.986;2023-08-06T16:52:20;0.90;;;0.40;;
70313;SDS011;71040;47.526;18.986;2023-08-06T16:57:26;0.82;;;0.55;;
70313;SDS011;71040;47.526;18.986;2023-08-06T17:02:27;1.03;;;0.50;;
70313;SDS011;71040;47.526;18.986;2023-08-06T17:07:27;0.63;;;0.40;;
70313;SDS011;71040;47.526;18.986;2023-08-06T17:12:28;0.60;;;0.50;;
70313;SDS011;71040;47.526;18.986;2023-08-06T17:17:30;0.80;;;0.40;;
70313;SDS011;71040;47.526;18.986;2023-08-06T17:22:31;1.17;;;0.57;;
70313;SDS011;71040;47.526;18.986;2023-08-06T17:27:32;0.80;;;0.57;;
70313;SDS011;71040;47.526;18.986;2023-08-06T17:32:33;0.60;;;0.47;;
70313;SDS011;71040;47.526;18.986;2023-08-06T17:37:33;1.00;;;0.70;;
70313;SDS011;71040;47.526;18.986;2023-08-06T17:42:33;0.87;;;0.60;;
70313;SDS011;71040;47.526;18.986;2023-08-06T17:47:34;0.63;;;0.50;;
70313;SDS011;71040;47.526;18.986;2023-08-06T17:52:36;0.70;;;0.63;;
70313;SDS011;71040;47.526;18.986;2023-08-06T17:57:39;0.68;;;0.57;;
70313;SDS011;71040;47.526;18.986;2023-08-06T18:02:39;0.80;;;0.60;;
70313;SDS011;71040;47.526;18.986;2023-08-06T18:07:41;0.70;;;0.60;;
70313;SDS011;71040;47.526;18.986;2023-08-06T18:12:44;0.70;;;0.50;;
70313;SDS011;71040;47.526;18.986;2023-08-06T18:17:47;0.57;;;0.50;;
70313;SDS011;71040;47.526;18.986;2023-08-06T18:22:47;2.05;;;0.68;;
70313;SDS011;71040;47.526;18.986;2023-08-06T18:27:48;0.80;;;0.60;;
70313;SDS011;71040;47.526;18.986;2023-08-06T18:32:48;0.67;;;0.40;;
70313;SDS011;71040;47.526;18.986;2023-08-06T18:37:49;1.07;;;0.50;;
70313;SDS011;71040;47.526;18.986;2023-08-06T18:42:52;0.77;;;0.50;;
70313;SDS011;71040;47.526;18.986;2023-08-06T18:47:52;1.17;;;0.60;;
70313;SDS011;71040;47.526;18.986;2023-08-06T18:52:55;0.77;;;0.50;;
70313;SDS011;71040;47.526;18.986;2023-08-06T18:57:55;1.03;;;0.53;;
70313;SDS011;71040;47.526;18.986;2023-08-06T19:02:58;0.70;;;0.40;;
70313;SDS011;71040;47.526;18.986;2023-08-06T19:08:01;0.70;;;0.50;;
70313;SDS011;71040;47.526;18.986;2023-08-06T19:13:08;1.10;;;0.70;;
70313;SDS011;71040;47.526;18.986;2023-08-06T19:18:14;0.95;;;0.50;;
70313;SDS011;71040;47.526;18.986;2023-08-06T19:23:15;0.65;;;0.50;;
70313;SDS011;71040;47.526;18.986;2023-08-06T19:28:19;1.17;;;0.60;;
70313;SDS011;71040;47.526;18.986;2023-08-06T19:33:20;2.10;;;0.60;;
70313;SDS011;71040;47.526;18.986;2023-08-06T19:38:24;1.00;;;0.50;;
70313;SDS011;71040;47.526;18.986;2023-08-06T19:43:25;0.85;;;0.43;;
70313;SDS011;71040;47.526;18.986;2023-08-06T19:48:31;1.13;;;0.50;;
70313;SDS011;71040;47.526;18.986;2023-08-06T19:53:37;1.17;;;0.50;;
70313;SDS011;71040;47.526;18.986;2023-08-06T19:58:42;0.70;;;0.40;;
70313;SDS011;71040;47.526;18.986;2023-08-06T20:03:42;1.30;;;0.60;;
70313;SDS011;71040;47.526;18.986;2023-08-06T20:08:43;1.80;;;0.52;;
70313;SDS011;71040;47.526;18.986;2023-08-06T20:13:43;1.57;;;0.67;;
70313;SDS011;71040;47.526;18.986;2023-08-06T20:18:44;0.77;;;0.47;;
70313;SDS011;71040;47.526;18.986;2023-08-06T20:23:44;0.70;;;0.50;;
70313;SDS011;71040;47.526;18.986;2023-08-06T20:28:44;1.00;;;0.47;;
70313;SDS011;71040;47.526;18.986;2023-08-06T20:33:50;1.65;;;0.60;;
70313;SDS011;71040;47.526;18.986;2023-08-06T20:38:50;0.80;;;0.33;;
70313;SDS011;71040;47.526;18.986;2023-08-06T20:43:50;0.60;;;0.30;;
70313;SDS011;71040;47.526;18.986;2023-08-06T20:48:53;1.43;;;0.50;;
70313;SDS011;71040;47.526;18.986;2023-08-06T20:53:54;1.63;;;0.38;;
70313;SDS011;71040;47.526;18.986;2023-08-06T20:58:56;0.73;;;0.55;;
70313;SDS011;71040;47.526;18.986;2023-08-06T21:03:57;0.57;;;0.30;;
70313;SDS011;71040;47.526;18.986;2023-08-06T21:08:57;0.80;;;0.70;;
70313;SDS011;71040;47.526;18.986;2023-08-06T21:13:57;2.07;;;0.60;;
70313;SDS011;71040;47.526;18.986;2023-08-06T21:19:02;0.40;;;0.20;;
70313;SDS011;71040;47.526;18.986;2023-08-06T21:24:05;0.77;;;0.40;;
70313;SDS011;71040;47.526;18.986;2023-08-06T21:29:08;0.90;;;0.40;;
70313;SDS011;71040;47.526;18.986;2023-08-06T21:34:09;0.53;;;0.20;;
70313;SDS011;71040;47.526;18.986;2023-08-06T21:39:11;0.50;;;0.20;;
70313;SDS011;71040;47.526;18.986;2023-08-06T21:44:12;0.40;;;0.15;;
70313;SDS011;71040;47.526;18.986;2023-08-06T21:49:12;0.70;;;0.20;;
70313;SDS011;71040;47.526;18.986;2023-08-06T21:54:13;1.30;;;0.20;;
70313;SDS011;71040;47.526;18.986;2023-08-06T21:59:16;0.40;;;0.20;;
70313;SDS011;71040;47.526;18.986;2023-08-06T22:04:17;0.90;;;0.20;;
70313;SDS011;71040;47.526;18.986;2023-08-06T22:09:17;0.30;;;0.20;;
70313;SDS011;71040;47.526;18.986;2023-08-06T22:14:17;0.30;;;0.20;;
70313;SDS011;71040;47.526;18.986;2023-08-06T22:19:18;0.65;;;0.20;;
70313;SDS011;71040;47.526;18.986;2023-08-06T22:24:20;0.30;;;0.15;;
70313;SDS011;71040;47.526;18.986;2023-08-06T22:29:23;0.40;;;0.20;;
70313;SDS011;71040;47.526;18.986;2023-08-06T22:34:26;0.52;;;0.20;;
70313;SDS011;71040;47.526;18.986;2023-08-06T22:39:29;0.40;;;0.10;;
70313;SDS011;71040;47.526;18.986;2023-08-06T22:44:30;0.97;;;0.10;;
70313;SDS011;71040;47.526;18.986;2023-08-06T22:49:30;1.23;;;0.10;;
70313;SDS011;71040;47.526;18.986;2023-08-06T22:54:33;0.10;;;0.00;;
70313;SDS011;71040;47.526;18.986;2023-08-06T22:59:33;1.47;;;0.10;;
70313;SDS011;71040;47.526;18.986;2023-08-06T23:04:36;0.20;;;0.10;;
70313;SDS011;71040;47.526;18.986;2023-08-06T23:09:36;0.50;;;0.10;;
70313;SDS011;71040;47.526;18.986;2023-08-06T23:14:39;0.15;;;0.00;;
70313;SDS011;71040;47.526;18.986;2023-08-06T23:19:40;0.73;;;0.10;;
70313;SDS011;71040;47.526;18.986;2023-08-06T23:24:42;0.10;;;0.10;;
70313;SDS011;71040;47.526;18.986;2023-08-06T23:29:45;0.28;;;0.10;;
70313;SDS011;71040;47.526;18.986;2023-08-06T23:34:49;0.38;;;0.10;;
70313;SDS011;71040;47.526;18.986;2023-08-06T23:39:55;0.30;;;0.10;;
70313;SDS011;71040;47.526;18.986;2023-08-06T23:44:55;0.55;;;0.10;;
70313;SDS011;71040;47.526;18.986;2023-08-06T23:49:55;0.20;;;0.10;;
70313;SDS011;71040;47.526;18.986;2023-08-06T23:54:56;0.27;;;0.10;;
70313;SDS011;71040;47.526;18.986;2023-08-06T23:59:58;0.10;;;0.00;;
